Aeroporto :
LOGIN :

Iscrizione | Disclaimer

   EN    FR    IT 

 










Sommario :    VFR   VFR Marginale   IFR   IFR Intensivo   IFR Molto Intensivo
Visibilità : 
Base nubi : 
>= 8 km
>= 3000ft
5 / 8 km
1000 / 3000 ft
1500m / 5 km
500 / 1000 ft
800 / 1500m
200 / 500 ft
< 800m
< 200 ft
Simboli :   Temporali  Nebbia  Neve Forte  Precipitazioni Forti  Vento > 20 kt
SIGMETs :   Varie  Temporali  Ghiacco  Turbolenza  Onda orograficha  Ceneri Vulcaniche






- Altitudine del aeroporto : 527 ft
- Codice IATA : DBV


LDDU - Dubrovnik

ULTIMO METAR :
  • 291330Z 17009KT 140V210 CAVOK 10/M02 Q1019 NOSIG

METARs OBSOLETI :
  • 291300Z 18007KT 120V230 CAVOK 10/M02 Q1019 NOSIG
  • 291230Z 18008KT 150V240 CAVOK 10/M03 Q1020 NOSIG
  • 291200Z 18007KT 140V230 CAVOK 10/M02 Q1020 NOSIG
  • 291130Z 20006KT 140V240 CAVOK 10/M03 Q1020 NOSIG
  • 291100Z 20003KT 130V260 CAVOK 10/M03 Q1021 NOSIG

TAF TAF LDDU
Valido dal 29 a 12 ore il 01 a 12 ore UTC


291125Z 2912/0112 17008KT CAVOK TX12/0111Z TN07/2921Z
BECMG 2915/2917 11008KT
BECMG 0104/0106 11020KT
PROB40
TEMPO 0108/0112 14025G35KT



MetMap, La meteo Aeronautica in un colpo d'occhio ! - Copyright ORBIFLY Dicembre 2007 - Disclaimer

ORBIFLY MET'MAP TEAM :

Programmazione e sviluppo : Alexandra Zaïnal
Concezione : Baudouin d'Aumeries
Aiuto per la programmazione : Marc-Olivier Méhu
Supporto tecnico e logistico : Manuel Goepfert
Aiuto per la traduzione : Arnaldo La Scala

Contatto : metmap@orbifly.com




FONTI E CREDITI :

   NOAA